Time;durP1;ratioP1;P1;durP2;ratioP2;P2;SDS_P1;SDS_P2;PMS_P1;PMS_P2;Temp;Humidity;BMP_temperature;BMP_pressure;BME280_temperature;BME280_humidity;BME280_pressure;Samples;Min_cycle;Max_cycle;Signal;HPM_P1;HPM_P2
2023/01/14 00:01:25;;;;;;;29.60;5.70;;;5.90;99.90;;;;;;4915553;29;20201;-67
2023/01/14 00:04:33;;;;;;;40.30;5.70;;;5.90;99.90;;;;;;4919888;29;20233;-68
2023/01/14 00:07:03;;;;;;;38.20;6.20;;;5.90;99.90;;;;;;4919165;29;20213;-67
2023/01/14 00:09:31;;;;;;;42.23;5.87;;;6.00;99.90;;;;;;4920056;29;20276;-67
2023/01/14 00:11:59;;;;;;;34.63;5.90;;;5.90;99.90;;;;;;4918798;29;20198;-67
2023/01/14 00:14:30;;;;;;;40.57;6.20;;;5.90;99.90;;;;;;4920216;29;20215;-67
2023/01/14 00:17:01;;;;;;;53.63;6.37;;;5.90;99.90;;;;;;4919838;29;20665;-67
2023/01/14 00:19:29;;;;;;;39.20;5.90;;;6.00;99.90;;;;;;4919737;29;20197;-67
2023/01/14 00:21:57;;;;;;;38.07;6.33;;;5.90;99.90;;;;;;4919485;29;20241;-67
2023/01/14 00:24:27;;;;;;;33.33;6.00;;;5.90;99.90;;;;;;4918407;29;20657;-67
2023/01/14 00:26:57;;;;;;;33.73;6.37;;;5.90;99.90;;;;;;4919752;29;20340;-67
2023/01/14 00:29:28;;;;;;;39.17;5.80;;;5.90;99.90;;;;;;4918380;29;20682;-67
2023/01/14 00:31:58;;;;;;;41.73;5.53;;;5.90;99.90;;;;;;4918348;29;20193;-67
2023/01/14 00:34:28;;;;;;;31.53;4.90;;;5.90;99.90;;;;;;4919398;29;20665;-68
2023/01/14 00:41:35;;;;;;;32.50;4.77;;;5.90;99.90;;;;;;4900627;29;20162;-67
2023/01/14 00:44:04;;;;;;;32.87;5.50;;;5.90;99.90;;;;;;4900443;29;20242;-67
2023/01/14 00:46:36;;;;;;;27.20;5.30;;;5.90;99.90;;;;;;4900446;29;20201;-67
2023/01/14 00:49:07;;;;;;;35.43;5.90;;;6.00;99.90;;;;;;4900713;29;20199;-67
2023/01/14 00:51:35;;;;;;;28.13;4.93;;;6.00;99.90;;;;;;4900596;29;20190;-68
2023/01/14 00:54:04;;;;;;;29.43;5.53;;;6.00;99.90;;;;;;4900519;29;20275;-68
2023/01/14 00:56:34;;;;;;;37.70;5.77;;;6.00;99.90;;;;;;4900360;29;20202;-68
2023/01/14 00:59:03;;;;;;;43.53;6.37;;;6.00;99.90;;;;;;4900085;29;20203;-67
2023/01/14 01:01:31;;;;;;;35.13;5.57;;;6.00;99.90;;;;;;4914703;29;20194;-67
2023/01/14 01:04:00;;;;;;;35.63;5.83;;;6.00;99.90;;;;;;4900671;29;20262;-67
2023/01/14 01:06:28;;;;;;;33.37;5.20;;;6.00;99.90;;;;;;4900363;29;20202;-67
2023/01/14 01:09:00;;;;;;;34.23;5.23;;;6.00;99.90;;;;;;4914648;29;20186;-67
2023/01/14 01:11:29;;;;;;;26.00;4.97;;;5.90;99.90;;;;;;4900189;29;20698;-67
2023/01/14 01:13:59;;;;;;;28.70;5.20;;;5.90;99.90;;;;;;4899581;29;20222;-67
2023/01/14 01:16:27;;;;;;;29.77;4.77;;;6.00;99.90;;;;;;4883093;29;20201;-67
2023/01/14 01:18:57;;;;;;;25.53;4.60;;;6.00;99.90;;;;;;4914560;29;20233;-68
2023/01/14 01:21:26;;;;;;;34.30;5.07;;;6.00;99.90;;;;;;4898511;29;20696;-68
2023/01/14 01:23:54;;;;;;;28.37;4.47;;;6.00;99.90;;;;;;4900276;29;20206;-67
2023/01/14 01:26:25;;;;;;;32.03;4.70;;;6.00;99.90;;;;;;4898542;29;20205;-68
2023/01/14 01:28:55;;;;;;;20.80;4.30;;;6.10;99.90;;;;;;4898774;29;20186;-67
2023/01/14 01:31:27;;;;;;;27.00;4.53;;;6.10;99.90;;;;;;4899718;29;20204;-67
2023/01/14 01:33:56;;;;;;;27.83;4.60;;;6.10;99.90;;;;;;4899386;29;20218;-67
2023/01/14 01:36:26;;;;;;;34.73;5.00;;;6.10;99.90;;;;;;4898258;29;20289;-67
2023/01/14 01:38:55;;;;;;;28.27;4.60;;;6.20;99.90;;;;;;4899485;29;20253;-67
2023/01/14 01:41:29;;;;;;;33.20;5.00;;;6.20;99.90;;;;;;4899465;29;20202;-67
2023/01/14 01:44:04;;;;;;;23.07;4.07;;;6.20;99.90;;;;;;4899546;29;20546;-67
2023/01/14 01:46:34;;;;;;;27.87;4.20;;;6.20;99.90;;;;;;4899423;29;20192;-68
2023/01/14 01:49:08;;;;;;;27.67;4.37;;;6.20;99.90;;;;;;4899479;29;20206;-67
2023/01/14 01:51:44;;;;;;;38.17;5.33;;;6.30;99.90;;;;;;4899530;29;20657;-67
2023/01/14 01:54:13;;;;;;;31.83;4.37;;;6.30;99.90;;;;;;4899448;29;20217;-67
2023/01/14 01:56:46;;;;;;;27.00;5.10;;;6.40;99.90;;;;;;4899286;29;20206;-67
2023/01/14 01:59:19;;;;;;;28.83;4.53;;;6.40;99.90;;;;;;4899125;29;20597;-68
2023/01/14 02:06:33;;;;;;;26.67;4.63;;;6.40;99.90;;;;;;4899185;29;20704;-68
2023/01/14 02:13:53;;;;;;;24.07;4.23;;;6.50;99.90;;;;;;4899626;29;20248;-67
2023/01/14 02:16:30;;;;;;;18.97;4.00;;;6.50;99.90;;;;;;4898857;29;20193;-68
2023/01/14 02:19:15;;;;;;;29.27;4.07;;;6.50;99.90;;;;;;4898805;29;20661;-67
2023/01/14 02:21:49;;;;;;;29.07;4.33;;;6.50;99.90;;;;;;4898513;29;20242;-67
2023/01/14 02:24:59;;;;;;;25.80;4.60;;;6.50;99.90;;;;;;4898046;29;20188;-68
2023/01/14 02:27:53;;;;;;;26.37;4.40;;;6.60;99.90;;;;;;4897396;29;20681;-68
2023/01/14 02:30:50;;;;;;;25.30;4.17;;;6.50;99.90;;;;;;4880706;29;20214;-67
2023/01/14 02:33:45;;;;;;;20.47;3.70;;;6.50;99.90;;;;;;4886418;29;20236;-67
2023/01/14 02:36:27;;;;;;;25.30;3.63;;;6.50;99.90;;;;;;4896676;29;20206;-68
2023/01/14 02:39:03;;;;;;;30.87;4.73;;;6.50;99.90;;;;;;4898548;29;20202;-67
2023/01/14 02:44:28;;;;;;;15.37;3.77;;;6.50;99.90;;;;;;4896640;29;20194;-67
2023/01/14 02:47:01;;;;;;;28.03;4.50;;;6.50;99.90;;;;;;4898924;29;20533;-67
2023/01/14 02:49:34;;;;;;;20.20;3.93;;;6.50;99.90;;;;;;4898501;29;20196;-68
2023/01/14 02:52:06;;;;;;;31.97;4.50;;;6.50;99.90;;;;;;4897232;29;20708;-67
2023/01/14 02:54:34;;;;;;;25.27;4.47;;;6.50;99.90;;;;;;4898132;29;20224;-68
2023/01/14 02:57:06;;;;;;;25.17;4.37;;;6.40;99.90;;;;;;4897192;29;20205;-68
2023/01/14 02:59:44;;;;;;;21.83;4.20;;;6.50;99.90;;;;;;4897114;29;20602;-67
2023/01/14 03:02:50;;;;;;;21.43;4.27;;;6.40;99.90;;;;;;4897492;29;20218;-67
2023/01/14 03:10:03;;;;;;;26.70;4.47;;;6.40;99.90;;;;;;4898233;29;20298;-67
2023/01/14 03:12:41;;;;;;;27.83;4.20;;;6.40;99.90;;;;;;4898157;29;20229;-67
2023/01/14 03:15:17;;;;;;;23.03;3.90;;;6.40;99.90;;;;;;4896802;29;20222;-67
2023/01/14 03:17:51;;;;;;;27.80;4.63;;;6.40;99.90;;;;;;4898103;29;20193;-67
2023/01/14 03:25:06;;;;;;;19.53;3.70;;;6.50;99.90;;;;;;4879324;29;20177;-67
2023/01/14 03:27:40;;;;;;;24.97;4.47;;;6.50;99.90;;;;;;4878043;29;20198;-67
2023/01/14 03:30:13;;;;;;;25.57;4.30;;;6.50;99.90;;;;;;4879550;29;20277;-67
2023/01/14 03:32:46;;;;;;;26.77;3.97;;;6.50;99.90;;;;;;4884023;29;20534;-67
2023/01/14 03:35:21;;;;;;;18.77;3.73;;;6.50;99.90;;;;;;4912509;29;20216;-67
2023/01/14 03:37:54;;;;;;;23.63;4.37;;;6.60;99.90;;;;;;4898616;29;20669;-67
2023/01/14 03:40:26;;;;;;;20.70;4.30;;;6.60;99.90;;;;;;4900585;29;20194;-67
2023/01/14 03:43:01;;;;;;;22.40;4.00;;;6.60;99.90;;;;;;4916532;29;20213;-67
2023/01/14 03:45:33;;;;;;;16.43;4.40;;;6.60;99.90;;;;;;4901807;29;20201;-67
2023/01/14 03:48:02;;;;;;;12.70;3.67;;;6.60;99.90;;;;;;4900344;29;20241;-67
2023/01/14 03:50:41;;;;;;;24.60;4.60;;;6.70;99.90;;;;;;4901277;29;20654;-67
2023/01/14 03:53:21;;;;;;;30.00;4.20;;;6.70;99.90;;;;;;4884871;29;20201;-67
2023/01/14 03:55:57;;;;;;;19.87;3.83;;;6.70;99.90;;;;;;4881645;29;20253;-67
2023/01/14 03:58:37;;;;;;;21.37;4.23;;;6.80;99.90;;;;;;4881433;29;20183;-68
2023/01/14 04:01:10;;;;;;;25.87;4.50;;;6.80;99.90;;;;;;4882838;29;20202;-67
2023/01/14 04:03:40;;;;;;;24.97;3.93;;;6.80;99.90;;;;;;4881223;29;20252;-67
2023/01/14 04:06:10;;;;;;;23.30;4.40;;;6.90;99.90;;;;;;4882602;29;20233;-67
2023/01/14 04:15:53;;;;;;;21.50;4.63;;;6.90;99.90;;;;;;4853316;29;20227;-68
2023/01/14 04:18:21;;;;;;;20.47;3.97;;;6.80;99.90;;;;;;4896632;29;20285;-68
2023/01/14 04:20:50;;;;;;;26.43;4.83;;;6.90;99.90;;;;;;4882227;29;20599;-67
2023/01/14 04:23:19;;;;;;;28.27;5.10;;;6.90;99.90;;;;;;4904146;29;20242;-67
2023/01/14 04:25:48;;;;;;;26.07;3.90;;;6.90;99.90;;;;;;4900841;29;20269;-67
2023/01/14 04:28:16;;;;;;;24.47;4.23;;;7.00;99.90;;;;;;4915153;29;20202;-68
2023/01/14 04:30:45;;;;;;;38.80;4.97;;;7.00;99.90;;;;;;4899762;29;20529;-67
2023/01/14 04:33:13;;;;;;;19.93;3.43;;;7.00;99.90;;;;;;4900717;29;20202;-67
2023/01/14 04:35:44;;;;;;;19.57;4.07;;;7.10;99.90;;;;;;4900566;29;20686;-68
2023/01/14 04:38:12;;;;;;;22.53;4.60;;;7.10;99.90;;;;;;4899982;29;20190;-67
2023/01/14 04:40:42;;;;;;;20.17;4.40;;;7.10;99.90;;;;;;4900539;29;20220;-67
2023/01/14 04:43:10;;;;;;;13.17;4.03;;;7.10;99.90;;;;;;4899351;29;20208;-67
2023/01/14 04:45:38;;;;;;;21.03;4.17;;;7.20;99.90;;;;;;4899441;29;20557;-67
2023/01/14 04:48:07;;;;;;;21.87;4.03;;;7.20;99.90;;;;;;4883804;29;20206;-67
2023/01/14 04:50:36;;;;;;;21.17;3.87;;;7.20;99.90;;;;;;4900040;29;20205;-67
2023/01/14 04:53:06;;;;;;;14.73;3.67;;;7.20;99.90;;;;;;4899552;29;20201;-67
2023/01/14 04:55:38;;;;;;;17.30;3.90;;;7.30;99.90;;;;;;4899013;29;20214;-67
2023/01/14 04:58:10;;;;;;;20.07;4.40;;;7.30;99.90;;;;;;4900317;29;20198;-68
2023/01/14 05:00:39;;;;;;;23.53;3.90;;;7.30;99.90;;;;;;4899328;29;20202;-67
2023/01/14 05:03:45;;;;;;;32.00;4.57;;;7.20;99.90;;;;;;4900543;29;20193;-67
2023/01/14 05:06:14;;;;;;;17.97;3.90;;;7.30;99.90;;;;;;4899316;29;20246;-67
2023/01/14 05:08:42;;;;;;;21.83;4.27;;;7.20;99.90;;;;;;4883204;29;20621;-67
2023/01/14 05:11:10;;;;;;;18.50;3.63;;;7.20;99.90;;;;;;4900130;29;20208;-67
2023/01/14 05:18:18;;;;;;;21.43;4.10;;;7.20;99.90;;;;;;4900029;29;20182;-68
2023/01/14 05:20:46;;;;;;;31.40;4.63;;;7.10;99.90;;;;;;4899797;29;20557;-67
2023/01/14 05:23:16;;;;;;;26.63;4.20;;;7.10;99.90;;;;;;4898299;29;20286;-67
2023/01/14 05:25:45;;;;;;;24.47;3.90;;;7.10;99.90;;;;;;4899707;29;20194;-68
2023/01/14 05:28:16;;;;;;;20.10;3.97;;;7.00;99.90;;;;;;4914066;29;20228;-68
2023/01/14 05:30:45;;;;;;;19.60;4.23;;;7.00;99.90;;;;;;4917843;29;20277;-68
2023/01/14 05:33:13;;;;;;;21.07;4.07;;;7.00;99.90;;;;;;4917192;29;20813;-68
2023/01/14 05:35:44;;;;;;;19.33;3.97;;;7.10;99.90;;;;;;4918411;29;20217;-68
2023/01/14 05:38:14;;;;;;;16.37;3.80;;;7.00;99.90;;;;;;4917206;29;20193;-68
2023/01/14 05:40:44;;;;;;;16.33;3.10;;;7.00;99.90;;;;;;4917184;29;20198;-69
2023/01/14 05:46:02;;;;;;;22.40;4.43;;;6.90;99.90;;;;;;4917993;29;20193;-68
2023/01/14 05:48:31;;;;;;;20.17;3.93;;;6.90;99.90;;;;;;4906867;29;20289;-68
2023/01/14 05:51:02;;;;;;;23.37;4.17;;;6.90;99.90;;;;;;4899590;29;20284;-68
2023/01/14 05:53:31;;;;;;;25.67;4.37;;;6.90;99.90;;;;;;4882583;29;20220;-68
2023/01/14 05:56:01;;;;;;;18.40;3.93;;;6.80;99.90;;;;;;4899194;29;20218;-68
2023/01/14 05:58:29;;;;;;;25.23;4.53;;;6.90;99.90;;;;;;4898094;29;20218;-67
2023/01/14 06:06:38;;;;;;;15.50;4.17;;;6.80;99.90;;;;;;4918058;29;20190;-67
2023/01/14 06:09:10;;;;;;;15.67;4.00;;;6.90;99.90;;;;;;4902791;29;20213;-67
2023/01/14 06:11:41;;;;;;;14.60;4.37;;;6.90;99.90;;;;;;4900317;29;20217;-67
2023/01/14 06:14:09;;;;;;;14.90;4.13;;;6.90;99.90;;;;;;4916485;29;20208;-67
2023/01/14 06:16:40;;;;;;;13.17;4.30;;;7.00;99.90;;;;;;4917746;29;20235;-67
2023/01/14 06:19:09;;;;;;;16.87;4.67;;;7.10;99.90;;;;;;4910476;29;20653;-67
2023/01/14 06:21:41;;;;;;;17.90;4.97;;;7.10;99.90;;;;;;4898528;29;20219;-67
2023/01/14 06:24:10;;;;;;;19.30;4.73;;;7.10;99.90;;;;;;4905217;29;20328;-67
2023/01/14 06:26:38;;;;;;;18.60;4.90;;;7.20;99.90;;;;;;4917174;29;20196;-67
2023/01/14 06:29:11;;;;;;;18.40;5.23;;;7.20;99.90;;;;;;4917405;29;20213;-67
2023/01/14 06:31:42;;;;;;;19.30;5.53;;;7.20;99.90;;;;;;4917525;29;20200;-67
2023/01/14 06:34:10;;;;;;;16.17;6.03;;;7.30;99.90;;;;;;4917101;29;20201;-67
2023/01/14 06:36:40;;;;;;;16.33;5.80;;;7.30;99.90;;;;;;4917703;29;20213;-67
2023/01/14 06:39:08;;;;;;;18.63;6.27;;;7.30;99.90;;;;;;4910078;29;20202;-67
2023/01/14 06:41:37;;;;;;;16.57;5.67;;;7.40;99.90;;;;;;4917632;29;20194;-67
2023/01/14 06:44:06;;;;;;;20.83;5.47;;;7.40;99.90;;;;;;4917185;29;20197;-67
2023/01/14 06:46:34;;;;;;;21.10;5.60;;;7.40;99.90;;;;;;4916249;29;20288;-66
2023/01/14 06:49:02;;;;;;;16.10;6.10;;;7.50;99.90;;;;;;4916251;29;20201;-67
2023/01/14 06:51:32;;;;;;;18.43;5.77;;;7.50;99.90;;;;;;4907217;29;20700;-66
2023/01/14 06:54:01;;;;;;;17.57;6.20;;;7.50;99.90;;;;;;4898261;29;20677;-66
2023/01/14 06:56:30;;;;;;;17.77;5.40;;;7.60;99.90;;;;;;4931510;29;20668;-67
2023/01/14 06:58:58;;;;;;;17.17;5.77;;;7.60;99.90;;;;;;4917025;29;20297;-66
2023/01/14 07:01:26;;;;;;;16.23;5.43;;;7.70;99.90;;;;;;4917238;29;20253;-66
2023/01/14 07:03:54;;;;;;;18.73;6.00;;;7.60;99.90;;;;;;4917187;29;20212;-66
2023/01/14 07:06:23;;;;;;;18.70;5.83;;;7.70;99.90;;;;;;4915909;29;20727;-67
2023/01/14 07:08:52;;;;;;;22.17;5.80;;;7.70;99.90;;;;;;4915920;29;20217;-67
2023/01/14 07:11:21;;;;;;;24.67;5.80;;;7.70;99.90;;;;;;4915773;29;20265;-67
2023/01/14 07:13:51;;;;;;;14.87;4.87;;;7.80;99.90;;;;;;4920995;29;20203;-67
2023/01/14 07:16:19;;;;;;;19.73;4.57;;;7.80;99.90;;;;;;4919594;29;20197;-66
2023/01/14 07:18:47;;;;;;;21.90;5.13;;;7.90;99.90;;;;;;4920735;29;20261;-67
2023/01/14 07:21:16;;;;;;;19.13;4.57;;;7.90;99.90;;;;;;4920349;29;20719;-66
2023/01/14 07:23:44;;;;;;;11.00;4.20;;;8.00;99.90;;;;;;4920777;29;20692;-67
2023/01/14 07:26:12;;;;;;;17.03;4.07;;;8.00;99.90;;;;;;4919691;29;20189;-67
2023/01/14 07:28:44;;;;;;;12.80;4.50;;;8.10;99.90;;;;;;4920757;29;20193;-67
2023/01/14 07:31:13;;;;;;;9.73;3.90;;;8.10;99.90;;;;;;4919782;29;20601;-66
2023/01/14 07:33:41;;;;;;;21.37;4.57;;;8.20;99.90;;;;;;4935376;29;20229;-66
2023/01/14 07:36:09;;;;;;;15.87;4.20;;;8.20;99.90;;;;;;4919676;29;20252;-66
2023/01/14 07:38:38;;;;;;;14.77;4.20;;;8.20;99.90;;;;;;4920626;29;20210;-66
2023/01/14 07:41:09;;;;;;;17.07;4.53;;;8.30;99.90;;;;;;4920543;29;20202;-66
2023/01/14 07:43:38;;;;;;;11.97;4.07;;;8.30;99.90;;;;;;4920318;29;20648;-67
2023/01/14 07:46:09;;;;;;;12.30;4.00;;;8.30;99.90;;;;;;4920033;29;20657;-67
2023/01/14 07:48:38;;;;;;;19.40;3.30;;;8.40;99.90;;;;;;4918623;29;20261;-67
2023/01/14 07:51:08;;;;;;;13.73;3.53;;;8.40;99.90;;;;;;4918403;29;20213;-67
2023/01/14 07:53:37;;;;;;;13.63;4.20;;;8.40;99.90;;;;;;4920079;29;20197;-67
2023/01/14 07:56:07;;;;;;;18.33;4.17;;;8.50;99.90;;;;;;4919978;29;20304;-67
2023/01/14 07:58:35;;;;;;;12.20;3.43;;;8.50;99.90;;;;;;4920072;29;20226;-67
2023/01/14 08:05:49;;;;;;;16.67;3.23;;;8.50;99.90;;;;;;4919684;29;20180;-68
2023/01/14 08:08:18;;;;;;;13.73;3.87;;;8.50;99.90;;;;;;4934602;29;20197;-67
2023/01/14 08:10:46;;;;;;;14.40;3.60;;;8.50;99.90;;;;;;4917260;29;20198;-67
2023/01/14 08:13:15;;;;;;;16.23;3.57;;;8.50;99.90;;;;;;4899851;29;20226;-68
2023/01/14 08:15:43;;;;;;;18.90;3.60;;;8.50;99.90;;;;;;4912540;29;20201;-67
2023/01/14 08:18:11;;;;;;;14.63;3.47;;;8.50;99.90;;;;;;4919466;29;20209;-67
2023/01/14 08:20:40;;;;;;;16.03;3.10;;;8.50;99.90;;;;;;4919681;29;20197;-67
2023/01/14 08:23:09;;;;;;;11.70;3.03;;;8.50;99.90;;;;;;4917971;29;20237;-67
2023/01/14 08:25:38;;;;;;;17.33;3.70;;;8.60;99.90;;;;;;4917880;29;20212;-66
2023/01/14 08:28:06;;;;;;;16.43;3.57;;;8.50;99.90;;;;;;4918652;29;20199;-67
2023/01/14 08:30:34;;;;;;;13.27;3.07;;;8.50;99.90;;;;;;4919632;29;20200;-66
2023/01/14 08:33:03;;;;;;;17.20;3.70;;;8.50;99.90;;;;;;4919625;29;20205;-67
2023/01/14 08:35:31;;;;;;;13.77;3.30;;;8.60;99.90;;;;;;4919718;29;20224;-66
2023/01/14 08:37:59;;;;;;;7.53;3.30;;;8.60;99.90;;;;;;4918536;29;20236;-67
2023/01/14 08:40:29;;;;;;;16.67;3.43;;;8.60;99.90;;;;;;4919471;29;20205;-67
2023/01/14 08:43:00;;;;;;;7.43;2.80;;;8.60;99.90;;;;;;4906478;29;20201;-67
2023/01/14 08:45:29;;;;;;;16.73;3.83;;;8.70;99.90;;;;;;4918308;29;20280;-66
2023/01/14 08:47:58;;;;;;;17.80;3.70;;;8.60;99.90;;;;;;4919285;29;20198;-66
2023/01/14 08:59:19;;;;;;;14.97;3.80;;;8.70;99.90;;;;;;4934488;29;20260;-67
2023/01/14 09:17:04;;;;;;;9.23;3.03;;;8.80;99.90;;;;;;4919268;29;20169;-66
2023/01/14 09:17:46;;;;;;;12.10;3.33;;;9.00;99.90;;;;;;4917257;29;20221;-68
2023/01/14 09:20:18;;;;;;;10.77;2.87;;;9.00;99.90;;;;;;4917477;29;20204;-67
2023/01/14 09:22:46;;;;;;;5.80;2.47;;;9.00;99.90;;;;;;4918146;29;20241;-68
2023/01/14 09:25:15;;;;;;;8.13;2.90;;;9.00;99.90;;;;;;4917290;29;20202;-67
2023/01/14 09:27:54;;;;;;;9.73;2.20;;;9.00;99.90;;;;;;4914302;29;20604;-68
2023/01/14 09:30:24;;;;;;;8.23;2.70;;;9.00;99.90;;;;;;4909085;29;20529;-67
2023/01/14 09:32:53;;;;;;;11.70;3.10;;;9.10;99.90;;;;;;4931082;29;20298;-67
2023/01/14 09:35:21;;;;;;;5.90;2.40;;;9.10;99.90;;;;;;4917422;29;20212;-67
2023/01/14 09:37:50;;;;;;;10.83;2.60;;;9.10;99.90;;;;;;4916990;29;20209;-67
2023/01/14 09:40:18;;;;;;;4.87;2.37;;;9.10;99.90;;;;;;4917151;29;20213;-67
2023/01/14 09:42:49;;;;;;;10.23;2.73;;;9.10;99.90;;;;;;4909041;29;20224;-67
2023/01/14 09:45:46;;;;;;;5.87;2.60;;;9.20;99.90;;;;;;4898632;29;20205;-66
2023/01/14 09:48:18;;;;;;;6.33;2.60;;;9.20;99.90;;;;;;4911920;29;20200;-66
2023/01/14 09:51:18;;;;;;;11.77;2.90;;;9.20;99.90;;;;;;4918132;29;20185;-68
2023/01/14 09:54:25;;;;;;;7.23;2.40;;;9.20;99.90;;;;;;4918099;29;20285;-66
2023/01/14 09:57:01;;;;;;;9.73;2.60;;;9.20;99.90;;;;;;4918781;29;20220;-67
2023/01/14 10:00:07;;;;;;;10.00;2.37;;;9.30;99.90;;;;;;4917863;29;20670;-67
2023/01/14 10:02:45;;;;;;;7.63;2.87;;;9.30;99.90;;;;;;4915320;29;20193;-67
2023/01/14 10:05:21;;;;;;;6.10;2.30;;;9.30;99.90;;;;;;4913248;29;20609;-67
2023/01/14 10:07:50;;;;;;;3.10;2.00;;;9.30;99.90;;;;;;4916820;29;20193;-66
2023/01/14 10:10:26;;;;;;;4.57;2.13;;;9.30;99.90;;;;;;4917206;29;20194;-66
2023/01/14 10:12:57;;;;;;;10.73;2.37;;;9.30;99.90;;;;;;4916285;29;20204;-67
2023/01/14 10:15:34;;;;;;;6.70;2.17;;;9.30;99.90;;;;;;4912829;29;20205;-67
2023/01/14 10:18:12;;;;;;;3.30;1.83;;;9.30;99.90;;;;;;4906943;29;20209;-67
2023/01/14 10:21:19;;;;;;;9.60;1.83;;;9.40;99.90;;;;;;4913254;29;20289;-67
2023/01/14 10:23:47;;;;;;;2.07;1.80;;;9.40;99.90;;;;;;4913357;29;20569;-67
2023/01/14 10:26:38;;;;;;;8.13;1.73;;;9.30;99.90;;;;;;4936722;29;20205;-66
2023/01/14 10:29:14;;;;;;;2.07;1.53;;;9.30;99.90;;;;;;4919629;29;20200;-66
2023/01/14 10:31:49;;;;;;;3.30;1.70;;;9.30;99.90;;;;;;4913277;29;20213;-66
2023/01/14 10:34:31;;;;;;;6.03;2.00;;;9.40;99.90;;;;;;4904950;29;20735;-67
2023/01/14 10:36:59;;;;;;;2.20;1.53;;;9.40;99.90;;;;;;4920010;29;20224;-66
2023/01/14 10:39:33;;;;;;;3.20;1.70;;;9.30;99.90;;;;;;4907081;29;20225;-66
2023/01/14 10:42:03;;;;;;;4.10;1.93;;;9.40;99.90;;;;;;4905288;29;20232;-66
2023/01/14 10:44:34;;;;;;;2.20;1.40;;;9.40;99.90;;;;;;4917045;29;20238;-67
2023/01/14 10:47:08;;;;;;;4.63;2.10;;;9.40;99.90;;;;;;4881394;29;20201;-66
2023/01/14 10:49:42;;;;;;;7.70;1.83;;;9.40;99.90;;;;;;4899547;29;20190;-66
2023/01/14 10:52:31;;;;;;;4.43;1.80;;;9.40;99.90;;;;;;4897079;29;20296;-66
2023/01/14 10:55:02;;;;;;;3.93;1.80;;;9.50;99.90;;;;;;4903658;29;20260;-66
2023/01/14 10:57:34;;;;;;;2.43;1.90;;;9.50;99.90;;;;;;4915782;29;20252;-66
2023/01/14 11:00:06;;;;;;;2.83;1.60;;;9.50;99.90;;;;;;4910949;29;20252;-67
2023/01/14 11:06:09;;;;;;;4.30;1.70;;;9.50;99.90;;;;;;4910578;29;20217;-68
2023/01/14 11:08:40;;;;;;;4.97;1.70;;;9.60;99.90;;;;;;4910270;29;20209;-67
2023/01/14 11:11:11;;;;;;;3.80;1.87;;;9.60;99.90;;;;;;4903886;29;20207;-69
2023/01/14 11:13:44;;;;;;;2.80;1.83;;;9.60;99.90;;;;;;4910503;29;20193;-68
2023/01/14 11:16:34;;;;;;;3.93;1.70;;;9.70;99.90;;;;;;4903601;29;20205;-69
2023/01/14 11:19:05;;;;;;;6.20;2.00;;;9.70;99.90;;;;;;4910068;29;20229;-68
2023/01/14 11:21:37;;;;;;;3.73;1.70;;;9.70;99.90;;;;;;4912651;29;20746;-68
2023/01/14 11:24:08;;;;;;;7.10;2.27;;;9.70;99.90;;;;;;4910776;29;20240;-68
2023/01/14 11:26:39;;;;;;;4.43;2.00;;;9.70;99.90;;;;;;4908958;29;20220;-69
2023/01/14 11:29:16;;;;;;;2.30;2.10;;;9.70;99.90;;;;;;4906422;29;20740;-69
2023/01/14 11:31:47;;;;;;;3.97;2.17;;;9.70;99.90;;;;;;4910508;29;20224;-68
2023/01/14 11:34:26;;;;;;;3.20;1.87;;;9.80;99.90;;;;;;4905550;29;20778;-68
2023/01/14 11:37:15;;;;;;;6.70;2.73;;;9.80;99.90;;;;;;4904502;29;20193;-68
2023/01/14 11:39:48;;;;;;;5.00;2.10;;;9.80;99.90;;;;;;4906016;29;20831;-68
2023/01/14 11:42:32;;;;;;;4.33;2.20;;;9.80;99.90;;;;;;4903134;29;20208;-69
2023/01/14 11:45:01;;;;;;;5.87;2.17;;;9.90;99.90;;;;;;4926176;29;20687;-69
2023/01/14 11:47:30;;;;;;;4.70;2.00;;;9.90;99.90;;;;;;4913031;29;20208;-69
2023/01/14 11:50:18;;;;;;;3.37;2.00;;;9.90;99.90;;;;;;4908654;29;21124;-67
2023/01/14 11:53:03;;;;;;;6.60;2.10;;;10.00;99.90;;;;;;4910724;29;20599;-67
2023/01/14 11:55:34;;;;;;;4.47;2.23;;;10.00;99.90;;;;;;4911670;29;20194;-66
2023/01/14 11:58:16;;;;;;;3.63;2.10;;;10.00;99.90;;;;;;4907132;29;20209;-71
2023/01/14 12:00:48;;;;;;;3.67;2.20;;;10.00;99.90;;;;;;4914105;29;20213;-68
2023/01/14 12:03:31;;;;;;;2.30;2.00;;;10.10;99.90;;;;;;4904569;29;20769;-67
2023/01/14 12:06:02;;;;;;;4.87;2.43;;;10.10;99.90;;;;;;4910282;29;20707;-67
2023/01/14 12:08:34;;;;;;;4.33;2.10;;;10.20;99.90;;;;;;4913098;29;20197;-67
2023/01/14 12:11:04;;;;;;;6.07;2.50;;;10.20;99.90;;;;;;4918170;29;20201;-67
2023/01/14 12:19:22;;;;;;;5.63;2.60;;;10.30;99.90;;;;;;4909435;29;20214;-67
2023/01/14 12:21:57;;;;;;;8.20;2.80;;;10.40;99.90;;;;;;4907480;29;20228;-67
2023/01/14 12:24:33;;;;;;;3.40;2.40;;;10.40;99.90;;;;;;4907477;29;20239;-68
2023/01/14 12:27:03;;;;;;;4.13;2.23;;;10.40;99.90;;;;;;4907658;29;20830;-67
2023/01/14 12:29:43;;;;;;;4.30;2.20;;;10.50;99.90;;;;;;4909880;29;20190;-67
2023/01/14 12:32:17;;;;;;;4.13;2.30;;;10.50;99.90;;;;;;4913659;29;20197;-67
2023/01/14 12:34:48;;;;;;;3.17;2.23;;;10.50;99.90;;;;;;4911189;29;20232;-67
2023/01/14 12:37:24;;;;;;;4.73;2.17;;;10.60;99.90;;;;;;4912207;29;20209;-68
2023/01/14 12:45:44;;;;;;;3.30;2.10;;;10.60;99.90;;;;;;4906846;29;20227;-67
2023/01/14 12:48:15;;;;;;;5.13;2.30;;;10.60;99.90;;;;;;4909007;29;20194;-68
2023/01/14 12:50:51;;;;;;;7.23;2.10;;;10.60;99.90;;;;;;4909842;29;20220;-68
2023/01/14 12:53:22;;;;;;;2.73;2.27;;;10.60;99.90;;;;;;4913899;29;20506;-68
2023/01/14 12:55:56;;;;;;;7.00;1.90;;;10.60;99.90;;;;;;4911725;29;20754;-68
2023/01/14 12:58:29;;;;;;;2.10;2.00;;;10.60;99.90;;;;;;4913764;29;20259;-68
2023/01/14 13:01:01;;;;;;;6.23;2.77;;;10.60;99.90;;;;;;4913543;29;20300;-68
2023/01/14 13:03:34;;;;;;;2.80;2.60;;;10.60;99.90;;;;;;4909207;29;20193;-67
2023/01/14 13:06:12;;;;;;;2.40;2.10;;;10.60;99.90;;;;;;4908156;29;20808;-67
2023/01/14 13:08:42;;;;;;;2.13;2.03;;;10.70;99.90;;;;;;4905865;29;20696;-67
2023/01/14 13:11:19;;;;;;;2.30;2.20;;;10.70;99.90;;;;;;4911985;29;20202;-68
2023/01/14 13:13:52;;;;;;;3.63;2.50;;;10.70;99.90;;;;;;4912755;29;20205;-67
2023/01/14 13:16:34;;;;;;;5.13;2.50;;;10.70;99.90;;;;;;4911571;29;20197;-67
2023/01/14 13:19:04;;;;;;;3.70;2.40;;;10.70;99.90;;;;;;4909693;29;20550;-67
2023/01/14 13:21:58;;;;;;;4.90;3.00;;;10.70;99.90;;;;;;4910432;29;20224;-67
2023/01/14 13:24:35;;;;;;;4.83;2.07;;;10.70;99.90;;;;;;4903885;29;20239;-69
2023/01/14 13:27:32;;;;;;;3.43;2.10;;;10.70;99.90;;;;;;4919295;29;20276;-67
2023/01/14 13:30:35;;;;;;;4.53;2.40;;;10.80;99.90;;;;;;4916011;29;20276;-67
2023/01/14 13:33:15;;;;;;;3.23;2.10;;;10.80;99.90;;;;;;4909311;29;20477;-67
2023/01/14 13:36:04;;;;;;;2.30;2.10;;;10.80;99.90;;;;;;4910867;29;20201;-67
2023/01/14 13:38:32;;;;;;;3.97;2.30;;;10.80;99.90;;;;;;4913885;29;20201;-67
2023/01/14 13:41:07;;;;;;;2.40;2.20;;;10.80;99.90;;;;;;4908117;29;20224;-67
2023/01/14 13:43:39;;;;;;;2.47;2.37;;;10.90;99.90;;;;;;4912213;29;20261;-67
2023/01/14 13:46:14;;;;;;;3.60;2.23;;;10.90;99.90;;;;;;4912657;29;20201;-68
2023/01/14 13:48:50;;;;;;;2.40;2.20;;;10.90;99.90;;;;;;4911463;29;20201;-67
2023/01/14 13:51:21;;;;;;;2.17;2.03;;;10.90;99.90;;;;;;4908753;29;20199;-67
2023/01/14 13:53:56;;;;;;;2.50;2.30;;;11.00;99.90;;;;;;4914836;29;20217;-67
2023/01/14 13:56:28;;;;;;;2.83;2.10;;;11.00;99.90;;;;;;4909102;29;20229;-68
2023/01/14 13:59:00;;;;;;;2.20;2.10;;;11.00;99.90;;;;;;4911365;29;20237;-67
2023/01/14 14:01:46;;;;;;;2.13;1.93;;;11.00;99.90;;;;;;4906734;29;20846;-67
2023/01/14 14:04:53;;;;;;;1.80;1.70;;;11.00;99.90;;;;;;4915102;29;20201;-68
2023/01/14 14:08:00;;;;;;;4.03;2.13;;;11.00;99.90;;;;;;4912789;29;20205;-67
2023/01/14 14:10:34;;;;;;;3.53;2.30;;;11.10;99.90;;;;;;4906326;29;20205;-67
2023/01/14 14:15:54;;;;;;;1.97;1.90;;;11.10;99.90;;;;;;4911562;29;20202;-67
2023/01/14 14:18:29;;;;;;;5.40;1.90;;;11.10;99.90;;;;;;4902901;29;20205;-67
2023/01/14 14:20:58;;;;;;;1.63;1.53;;;11.10;99.90;;;;;;4909771;29;20235;-66
2023/01/14 14:23:31;;;;;;;2.03;1.90;;;11.10;99.90;;;;;;4912956;29;20312;-67
2023/01/14 14:26:02;;;;;;;2.47;1.90;;;11.20;99.90;;;;;;4906407;29;20844;-67
2023/01/14 14:28:33;;;;;;;2.00;1.83;;;11.20;99.90;;;;;;4913579;29;20216;-67
2023/01/14 14:31:05;;;;;;;1.77;1.70;;;11.10;99.90;;;;;;4909609;29;20198;-67
2023/01/14 14:33:38;;;;;;;2.53;1.73;;;11.20;99.90;;;;;;4909528;29;20243;-67
2023/01/14 14:36:14;;;;;;;2.33;2.23;;;11.20;99.90;;;;;;4903365;29;20839;-67
2023/01/14 14:38:48;;;;;;;2.10;1.90;;;11.20;99.90;;;;;;4913080;29;20732;-68
2023/01/14 14:41:22;;;;;;;1.90;1.90;;;11.20;99.90;;;;;;4912727;29;20305;-67
2023/01/14 14:43:56;;;;;;;4.83;2.30;;;11.20;99.90;;;;;;4902398;29;20225;-67
2023/01/14 14:46:26;;;;;;;2.10;1.80;;;11.20;99.90;;;;;;4905536;29;20231;-68
2023/01/14 14:48:55;;;;;;;2.20;2.10;;;11.20;99.90;;;;;;4908176;29;20202;-67
2023/01/14 14:51:26;;;;;;;1.83;1.83;;;11.30;99.90;;;;;;4909480;29;20269;-67